This is the latest recevied weather packets stored in our database for station/object KF0PEC-15. If no packets are shown the sender has not sent any weather packets the latest 10 day(s).
| Time | Temp. | Humidity | Pressure | Rain* | Wind** | Luminosity | Snow |
|---|---|---|---|---|---|---|---|
| 1777857975 | 18.33° C | 25% | 1006.2 hPa | 0 mm | - | 106 W/m² | - |
| 1777857391 | 18.89° C | 24% | 1005.9 hPa | 0 mm | - | 177 W/m² | - |
| 1777856810 | 18.89° C | 25% | 1005.9 hPa | 0 mm | - | 301 W/m² | - |
| 1777856310 | 18.89° C | 25% | 1005.7 hPa | 0 mm | - | 360 W/m² | - |
| 1777855765 | 19.44° C | 24% | 1005 hPa | 0 mm | - | 410 W/m² | - |
| 1777855170 | 20° C | 21% | 1004.8 hPa | 0 mm | - | 511 W/m² | - |
| 1777854585 | 20° C | 22% | 1004.8 hPa | 0 mm | - | 705 W/m² | - |
| 1777854055 | 19.44° C | 23% | 1005 hPa | 0 mm | - | 800 W/m² | - |
| 1777853490 | 19.44° C | 25% | 1005.1 hPa | 0 mm | - | 797 W/m² | - |
| 1777852965 | 20° C | 23% | 1005.2 hPa | 0 mm | - | 812 W/m² | - |
| 1777852375 | 20° C | 21% | 1005.3 hPa | 0 mm | - | 101 W/m² | - |
| 1777851777 | 20.56° C | 21% | 1004.9 hPa | 0 mm | - | 102 W/m² | - |
| 1777851197 | 20.56° C | 21% | 1004.5 hPa | 0 mm | - | 125 W/m² | - |
| 1777850645 | 20.56° C | 21% | 1004.6 hPa | 0 mm | - | 124 W/m² | - |
| 1777850105 | 20.56° C | 22% | 1004.7 hPa | 0 mm | - | 158 W/m² | - |
| 1777849505 | 21.11° C | 21% | 1004.6 hPa | 0 mm | - | 104 W/m² | - |
| 1777848950 | 21.11° C | 20% | 1004.5 hPa | 0 mm | - | 116 W/m² | - |
| 1777848425 | 20.56° C | 21% | 1004.8 hPa | 0 mm | - | 201 W/m² | - |
| 1777847853 | 21.11° C | 20% | 1004.6 hPa | 0 mm | - | 157 W/m² | - |
| 1777847265 | 21.11° C | 20% | 1004.5 hPa | 0 mm | - | 173 W/m² | - |
| 1777846740 | 20.56° C | 20% | 1005.1 hPa | 0 mm | - | 416 W/m² | - |
| 1777846177 | 21.11° C | 20% | 1005.1 hPa | 0 mm | - | 169 W/m² | - |
| 1777845645 | 21.11° C | 21% | 1004.9 hPa | 0 mm | - | 224 W/m² | - |
| 1777845150 | 20.56° C | 21% | 1005.4 hPa | 0 mm | - | 185 W/m² | - |
| 1777844640 | 20.56° C | 22% | 1005.5 hPa | 0 mm | - | 195 W/m² | - |
* Rain latest hour (hover to see other rain measurements)
** Current wind speed in m/s (hover to see current wind gust speed)